createdAt,value
2023-04-11T00:01:14.659Z,94.74
2023-04-11T00:03:41.267Z,94.75
2023-04-11T00:06:07.507Z,94.77
2023-04-11T00:08:33.920Z,94.80
2023-04-11T00:11:00.319Z,94.86
2023-04-11T00:13:26.704Z,94.90
2023-04-11T00:15:53.071Z,94.97
2023-04-11T00:18:19.447Z,95.07
2023-04-11T00:20:45.899Z,95.18
2023-04-11T00:23:12.291Z,95.27
2023-04-11T00:25:38.674Z,95.38
2023-04-11T00:28:05.143Z,95.47
2023-04-11T00:30:31.559Z,95.59
2023-04-11T00:32:57.977Z,95.67
2023-04-11T00:35:24.330Z,95.79
2023-04-11T00:37:50.705Z,95.89
2023-04-11T00:40:17.169Z,95.96
2023-04-11T00:42:43.600Z,96.04
2023-04-11T00:45:09.999Z,96.10
2023-04-11T00:47:36.438Z,96.19
2023-04-11T00:50:02.743Z,96.23
2023-04-11T00:52:29.114Z,96.31
2023-04-11T00:54:55.488Z,96.38
2023-04-11T00:57:21.922Z,96.45
2023-04-11T00:59:48.389Z,96.51
2023-04-11T01:02:14.796Z,96.56
2023-04-11T01:04:41.144Z,96.61
2023-04-11T01:07:07.511Z,96.66
2023-04-11T01:09:33.889Z,96.73
2023-04-11T01:12:00.302Z,96.78
2023-04-11T01:14:26.682Z,96.82
2023-04-11T01:16:53.106Z,96.88
2023-04-11T01:19:19.497Z,96.92
2023-04-11T01:21:45.903Z,96.97
2023-04-11T01:24:12.279Z,96.99
2023-04-11T01:26:38.759Z,97.02
2023-04-11T01:29:05.115Z,97.06
2023-04-11T01:31:32.828Z,97.08
2023-04-11T01:33:57.945Z,97.12
2023-04-11T01:36:24.396Z,97.15
2023-04-11T01:38:50.798Z,97.20
2023-04-11T01:41:17.217Z,97.24
2023-04-11T01:43:43.578Z,97.28
2023-04-11T01:46:10.006Z,97.35
2023-04-11T01:48:36.524Z,97.41
2023-04-11T01:51:02.767Z,97.49
2023-04-11T01:53:29.141Z,97.55
2023-04-11T01:55:55.558Z,97.62
2023-04-11T01:58:21.975Z,97.70
2023-04-11T02:00:48.376Z,97.77
2023-04-11T02:03:14.966Z,97.85
2023-04-11T02:05:41.198Z,97.94
2023-04-11T02:08:07.561Z,98.01
2023-04-11T02:10:33.949Z,98.07
2023-04-11T02:13:00.348Z,98.14
2023-04-11T02:15:26.797Z,98.20
2023-04-11T02:17:53.208Z,98.23
2023-04-11T02:20:19.580Z,98.28
2023-04-11T02:22:45.969Z,98.34
2023-04-11T02:25:12.351Z,98.40
2023-04-11T02:27:38.705Z,98.42
2023-04-11T02:30:05.114Z,98.48
2023-04-11T02:32:31.548Z,98.55
2023-04-11T02:34:57.939Z,98.63
2023-04-11T02:37:24.365Z,98.69
2023-04-11T02:39:50.741Z,98.80
2023-04-11T02:42:17.162Z,98.87
2023-04-11T02:44:43.561Z,98.95
2023-04-11T02:47:09.970Z,99.07
2023-04-11T02:49:36.353Z,99.15
2023-04-11T02:52:02.741Z,99.26
2023-04-11T02:54:29.109Z,99.38
2023-04-11T02:56:55.486Z,99.50
2023-04-11T02:59:21.955Z,99.59
2023-04-11T03:01:48.383Z,99.71
2023-04-11T03:04:14.732Z,99.81
2023-04-11T03:06:41.106Z,99.89
2023-04-11T03:09:07.469Z,100.00
2023-04-11T03:11:33.895Z,100.00
2023-04-11T03:14:00.259Z,100.00
2023-04-11T03:16:26.723Z,100.00
2023-04-11T03:18:53.144Z,100.00
2023-04-11T03:21:19.406Z,100.00
2023-04-11T03:23:45.779Z,100.00
2023-04-11T03:26:12.207Z,100.00
2023-04-11T03:28:38.640Z,100.00
2023-04-11T03:31:05.080Z,100.00
2023-04-11T03:33:31.486Z,100.00
2023-04-11T03:35:57.914Z,100.00
2023-04-11T03:38:24.267Z,100.00
2023-04-11T03:40:50.677Z,100.00
2023-04-11T03:43:17.051Z,100.00
2023-04-11T03:45:43.417Z,100.00
2023-04-11T03:48:09.862Z,100.00
2023-04-11T03:50:36.276Z,100.00
2023-04-11T03:53:02.699Z,100.00
2023-04-11T03:55:29.107Z,100.00
2023-04-11T03:57:55.506Z,100.00
2023-04-11T04:00:22.138Z,100.00
2023-04-11T04:02:48.745Z,100.00
2023-04-11T04:05:14.893Z,100.00
2023-04-11T04:07:41.321Z,100.00
2023-04-11T04:10:07.754Z,100.00
2023-04-11T04:12:34.155Z,100.00
2023-04-11T04:15:00.539Z,100.00
2023-04-11T04:17:26.987Z,100.00
2023-04-11T04:19:53.385Z,100.00
2023-04-11T04:22:19.737Z,100.00
2023-04-11T04:24:46.402Z,100.00
2023-04-11T04:27:12.968Z,100.00
2023-04-11T04:29:39.598Z,100.00
2023-04-11T04:32:05.988Z,100.00
2023-04-11T04:34:32.259Z,100.00
2023-04-11T04:36:58.631Z,100.00
2023-04-11T04:39:25.115Z,100.00
2023-04-11T04:41:51.568Z,100.00
2023-04-11T04:44:18.005Z,100.00
2023-04-11T04:46:44.936Z,100.00
2023-04-11T04:49:11.328Z,100.00
2023-04-11T04:51:37.684Z,100.00
2023-04-11T04:54:04.067Z,100.00
2023-04-11T04:56:30.788Z,100.00
2023-04-11T04:58:57.206Z,100.00
2023-04-11T05:01:23.614Z,100.00
2023-04-11T05:03:50.023Z,100.00
2023-04-11T05:06:17.420Z,100.00
2023-04-11T05:08:43.072Z,100.00
2023-04-11T05:11:09.484Z,97.58
2023-04-11T05:13:35.919Z,94.02
2023-04-11T05:16:02.291Z,92.70
2023-04-11T05:18:28.892Z,91.42
2023-04-11T05:20:55.265Z,89.06
2023-04-11T05:23:21.669Z,87.42
2023-04-11T05:25:48.064Z,86.49
2023-04-11T05:28:14.440Z,85.48
2023-04-11T05:30:41.073Z,84.84
2023-04-11T05:33:07.612Z,84.00
2023-04-11T05:35:33.869Z,83.36
2023-04-11T05:38:00.212Z,82.51
2023-04-11T05:40:26.743Z,81.20
2023-04-11T05:42:53.152Z,80.19
2023-04-11T05:45:19.576Z,79.74
2023-04-11T05:47:46.233Z,79.33
2023-04-11T05:50:12.720Z,79.19
2023-04-11T05:52:39.142Z,78.66
2023-04-11T05:55:05.552Z,78.60
2023-04-11T05:57:31.920Z,78.41
2023-04-11T05:59:58.339Z,78.02
2023-04-11T06:02:25.020Z,77.21
2023-04-11T06:04:51.282Z,76.91
2023-04-11T06:07:17.651Z,76.67
2023-04-11T06:09:44.124Z,76.51
2023-04-11T06:12:10.632Z,76.16
2023-04-11T06:14:39.596Z,75.63
2023-04-11T06:17:03.383Z,75.31
2023-04-11T06:19:29.802Z,74.81
2023-04-11T06:21:56.660Z,74.26
2023-04-11T06:24:23.057Z,73.55
2023-04-11T06:26:49.498Z,72.75
2023-04-11T06:29:15.877Z,71.84
2023-04-11T06:31:42.520Z,71.07
2023-04-11T06:34:08.840Z,70.28
2023-04-11T06:36:35.217Z,69.67
2023-04-11T06:39:01.665Z,68.87
2023-04-11T06:41:28.218Z,67.88
2023-04-11T06:43:54.815Z,67.38
2023-04-11T06:46:21.029Z,67.08
2023-04-11T06:48:47.618Z,66.25
2023-04-11T06:51:14.210Z,65.75
2023-04-11T06:53:41.732Z,65.20
2023-04-11T06:56:08.146Z,64.88
2023-04-11T06:58:34.550Z,64.54
2023-04-11T07:01:00.919Z,64.50
2023-04-11T07:03:27.381Z,64.58
2023-04-11T07:05:53.688Z,64.34
2023-04-11T07:08:20.045Z,64.29
2023-04-11T07:10:46.544Z,64.20
2023-04-11T07:13:12.961Z,64.18
2023-04-11T07:15:39.434Z,64.15
2023-04-11T07:18:05.825Z,64.07
2023-04-11T07:20:32.180Z,63.87
2023-04-11T07:22:58.626Z,63.72
2023-04-11T07:25:25.042Z,63.59
2023-04-11T07:27:51.683Z,63.61
2023-04-11T07:30:18.271Z,63.65
2023-04-11T07:32:44.802Z,63.69
2023-04-11T07:35:11.169Z,63.48
2023-04-11T07:37:38.897Z,63.18
2023-04-11T07:40:05.417Z,63.04
2023-04-11T07:42:31.890Z,62.89
2023-04-11T07:44:58.387Z,62.75
2023-04-11T07:47:24.720Z,62.46
2023-04-11T07:49:51.144Z,62.34
2023-04-11T07:52:17.549Z,62.03
2023-04-11T07:54:44.050Z,61.82
2023-04-11T07:57:10.450Z,61.64
2023-04-11T07:59:37.448Z,61.54
2023-04-11T08:02:07.901Z,61.28
2023-04-11T08:04:34.762Z,61.03
2023-04-11T08:07:00.792Z,60.67
2023-04-11T08:09:27.279Z,60.30
2023-04-11T08:11:54.059Z,59.94
2023-04-11T08:14:20.402Z,59.59
2023-04-11T08:16:47.003Z,59.44
2023-04-11T08:19:13.430Z,59.18
2023-04-11T08:21:44.409Z,59.01
2023-04-11T08:24:10.813Z,59.15
2023-04-11T08:26:37.323Z,59.23
2023-04-11T08:29:03.777Z,59.17
2023-04-11T08:31:30.214Z,58.90
2023-04-11T08:33:59.124Z,58.78
2023-04-11T08:36:23.113Z,58.59
2023-04-11T08:38:49.550Z,58.18
2023-04-11T08:41:15.936Z,57.92
2023-04-11T08:43:42.325Z,57.49
2023-04-11T08:46:08.817Z,57.29
2023-04-11T08:48:35.123Z,57.09
2023-04-11T08:51:01.574Z,56.69
2023-04-11T08:53:28.345Z,56.31
2023-04-11T08:55:54.780Z,56.07
2023-04-11T08:58:21.208Z,55.84
2023-04-11T09:00:47.778Z,55.69
2023-04-11T09:03:14.570Z,55.55
2023-04-11T09:05:40.918Z,54.99
2023-04-11T09:08:07.307Z,54.57
2023-04-11T09:10:33.714Z,54.25
2023-04-11T09:13:00.288Z,54.09
2023-04-11T09:15:26.777Z,53.70
2023-04-11T09:17:53.227Z,53.35
2023-04-11T09:20:19.597Z,53.34
2023-04-11T09:22:45.976Z,53.08
2023-04-11T09:25:12.435Z,52.84
2023-04-11T09:27:38.884Z,52.78
2023-04-11T09:30:05.261Z,52.49
2023-04-11T09:32:31.931Z,52.24
2023-04-11T09:34:58.285Z,52.39
2023-04-11T09:37:24.718Z,52.61
2023-04-11T09:39:51.055Z,52.59
2023-04-11T09:42:17.494Z,52.62
2023-04-11T09:44:44.022Z,52.66
2023-04-11T09:47:10.556Z,53.04
2023-04-11T09:49:36.985Z,53.21
2023-04-11T09:52:03.688Z,53.05
2023-04-11T09:54:30.076Z,53.04
2023-04-11T09:56:56.452Z,52.98
2023-04-11T09:59:23.145Z,53.13
2023-04-11T10:01:52.963Z,53.17
2023-04-11T10:04:19.294Z,53.10
2023-04-11T10:06:45.676Z,53.21
2023-04-11T10:09:12.237Z,53.12
2023-04-11T10:11:38.656Z,53.18
2023-04-11T10:14:05.081Z,53.05
2023-04-11T10:16:31.788Z,52.88
2023-04-11T10:18:58.292Z,52.46
2023-04-11T10:21:24.564Z,52.34
2023-04-11T10:23:51.046Z,52.18
2023-04-11T10:26:17.413Z,52.16
2023-04-11T10:28:43.791Z,52.04
2023-04-11T10:31:10.393Z,51.97
2023-04-11T10:33:36.567Z,51.74
2023-04-11T10:36:03.023Z,51.73
2023-04-11T10:38:29.319Z,51.31
2023-04-11T10:40:55.749Z,51.40
2023-04-11T10:43:22.165Z,50.62
2023-04-11T10:45:48.535Z,50.09
2023-04-11T10:48:14.974Z,49.58
2023-04-11T10:50:41.353Z,49.09
2023-04-11T10:53:07.770Z,48.46
2023-04-11T10:55:34.247Z,47.54
2023-04-11T10:58:00.667Z,47.07
2023-04-11T11:00:27.044Z,46.37
2023-04-11T11:02:53.623Z,45.45
2023-04-11T11:05:19.871Z,45.37
2023-04-11T11:07:46.258Z,44.86
2023-04-11T11:10:12.640Z,44.67
2023-04-11T11:12:38.996Z,44.34
2023-04-11T11:15:05.377Z,44.14
2023-04-11T11:17:31.759Z,44.07
2023-04-11T11:19:58.170Z,43.99
2023-04-11T11:22:24.561Z,44.37
2023-04-11T11:24:50.983Z,44.78
2023-04-11T11:27:17.784Z,44.96
2023-04-11T11:29:44.192Z,45.22
2023-04-11T11:32:10.674Z,45.19
2023-04-11T11:34:37.057Z,45.32
2023-04-11T11:37:03.438Z,45.06
2023-04-11T11:39:29.839Z,44.71
2023-04-11T11:41:56.295Z,44.65
2023-04-11T11:44:22.768Z,44.48
2023-04-11T11:46:49.149Z,44.24
2023-04-11T11:49:15.744Z,44.22
2023-04-11T11:51:42.101Z,44.41
2023-04-11T11:54:08.478Z,44.30
2023-04-11T11:56:34.925Z,44.27
2023-04-11T11:59:01.541Z,43.97
2023-04-11T12:01:27.880Z,44.02
2023-04-11T12:03:54.672Z,43.97
2023-04-11T12:06:20.932Z,44.02
2023-04-11T12:08:47.563Z,44.04
2023-04-11T12:11:14.885Z,43.91
2023-04-11T12:13:41.377Z,43.96
2023-04-11T12:16:07.909Z,43.71
2023-04-11T12:18:34.313Z,43.85
2023-04-11T12:21:00.735Z,43.61
2023-04-11T12:23:27.144Z,43.61
2023-04-11T12:25:53.593Z,43.49
2023-04-11T12:28:22.352Z,43.40
2023-04-11T12:30:50.953Z,43.34
2023-04-11T12:33:17.334Z,43.06
2023-04-11T12:35:45.802Z,43.18
2023-04-11T12:38:14.972Z,43.27
2023-04-11T12:40:38.609Z,43.30
2023-04-11T12:43:05.093Z,43.40
2023-04-11T12:45:31.533Z,43.34
2023-04-11T12:47:57.943Z,43.36
2023-04-11T12:50:24.586Z,43.30
2023-04-11T12:52:50.861Z,43.33
2023-04-11T12:55:17.268Z,43.44
2023-04-11T12:57:43.709Z,43.28
2023-04-11T13:00:10.167Z,43.07
2023-04-11T13:02:42.869Z,43.15
2023-04-11T13:05:03.236Z,43.16
2023-04-11T13:07:29.641Z,43.10
2023-04-11T13:09:56.065Z,43.15
2023-04-11T13:12:22.425Z,43.18
2023-04-11T13:14:48.981Z,43.27
2023-04-11T13:17:15.347Z,43.33
2023-04-11T13:19:41.766Z,43.11
2023-04-11T13:22:08.203Z,43.24
2023-04-11T13:24:34.635Z,43.26
2023-04-11T13:27:00.998Z,43.32
2023-04-11T13:29:27.454Z,44.26
2023-04-11T13:31:53.872Z,46.95
2023-04-11T13:34:20.234Z,45.75
2023-04-11T13:36:46.756Z,44.81
2023-04-11T13:39:13.430Z,44.50
2023-04-11T13:41:39.780Z,44.13
2023-04-11T13:44:06.191Z,43.92
2023-04-11T13:46:32.582Z,43.96
2023-04-11T13:48:59.293Z,46.12
2023-04-11T13:51:25.597Z,45.58
2023-04-11T13:53:52.010Z,44.92
2023-04-11T13:56:18.396Z,44.56
2023-04-11T13:58:44.825Z,44.50
2023-04-11T14:01:11.258Z,44.47
2023-04-11T14:03:37.932Z,44.40
2023-04-11T14:06:04.131Z,44.45
2023-04-11T14:08:30.512Z,44.51
2023-04-11T14:10:57.255Z,44.60
2023-04-11T14:13:23.807Z,44.81
2023-04-11T14:16:05.009Z,44.97
2023-04-11T14:18:16.645Z,45.19
2023-04-11T14:20:43.153Z,45.02
2023-04-11T14:23:09.596Z,45.07
2023-04-11T14:25:36.409Z,45.19
2023-04-11T14:28:02.806Z,45.15
2023-04-11T14:30:29.507Z,44.93
2023-04-11T14:32:55.821Z,44.97
2023-04-11T14:35:22.240Z,45.08
2023-04-11T14:37:48.606Z,45.09
2023-04-11T14:40:15.111Z,45.21
2023-04-11T14:42:41.526Z,45.40
2023-04-11T14:45:07.999Z,45.56
2023-04-11T14:47:34.518Z,45.59
2023-04-11T14:50:00.931Z,45.61
2023-04-11T14:52:27.635Z,45.77
2023-04-11T14:54:54.049Z,45.94
2023-04-11T14:57:20.447Z,46.04
2023-04-11T14:59:46.842Z,46.32
2023-04-11T15:02:13.391Z,46.48
2023-04-11T15:04:39.707Z,46.65
2023-04-11T15:07:06.091Z,46.87
2023-04-11T15:09:32.508Z,47.00
2023-04-11T15:11:58.935Z,46.98
2023-04-11T15:14:25.289Z,46.98
2023-04-11T15:16:51.964Z,47.02
2023-04-11T15:19:18.323Z,46.98
2023-04-11T15:21:45.086Z,50.07
2023-04-11T15:24:11.451Z,55.58
2023-04-11T15:26:38.001Z,55.25
2023-04-11T15:29:04.451Z,51.64
2023-04-11T15:31:31.062Z,49.94
2023-04-11T15:33:57.750Z,49.10
2023-04-11T15:36:24.109Z,48.68
2023-04-11T15:38:50.388Z,48.54
2023-04-11T15:41:16.794Z,48.38
2023-04-11T15:43:43.196Z,48.46
2023-04-11T15:46:09.686Z,48.47
2023-04-11T15:48:36.275Z,48.46
2023-04-11T15:51:02.686Z,48.44
2023-04-11T15:53:29.157Z,48.58
2023-04-11T15:55:57.948Z,48.66
2023-04-11T15:58:24.592Z,48.79
2023-04-11T16:00:51.127Z,48.72
2023-04-11T16:03:17.662Z,48.84
2023-04-11T16:05:44.136Z,48.91
2023-04-11T16:08:10.537Z,49.09
2023-04-11T16:10:37.032Z,49.17
2023-04-11T16:13:03.502Z,49.34
2023-04-11T16:15:30.618Z,49.15
2023-04-11T16:17:58.024Z,49.17
2023-04-11T16:20:24.409Z,49.34
2023-04-11T16:22:50.874Z,49.49
2023-04-11T16:25:17.513Z,50.05
2023-04-11T16:27:45.304Z,50.76
2023-04-11T16:30:11.689Z,50.68
2023-04-11T16:32:38.610Z,50.60
2023-04-11T16:35:05.193Z,50.63
2023-04-11T16:37:31.592Z,50.75
2023-04-11T16:40:00.355Z,50.92
2023-04-11T16:42:26.744Z,51.06
2023-04-11T16:44:53.119Z,51.17
2023-04-11T16:47:24.575Z,51.18
2023-04-11T16:49:51.198Z,51.31
2023-04-11T16:52:17.772Z,51.38
2023-04-11T16:54:45.411Z,51.57
2023-04-11T16:57:12.228Z,51.58
2023-04-11T16:59:38.695Z,51.82
2023-04-11T17:02:05.799Z,51.82
2023-04-11T17:04:32.285Z,52.03
2023-04-11T17:06:58.526Z,51.90
2023-04-11T17:09:24.910Z,51.95
2023-04-11T17:11:51.372Z,52.01
2023-04-11T17:14:17.771Z,52.15
2023-04-11T17:16:44.418Z,52.36
2023-04-11T17:19:10.742Z,52.37
2023-04-11T17:21:37.113Z,52.29
2023-04-11T17:24:03.488Z,52.48
2023-04-11T17:26:29.886Z,52.55
2023-04-11T17:28:56.571Z,52.73
2023-04-11T17:31:23.353Z,52.75
2023-04-11T17:33:49.692Z,53.76
2023-04-11T17:36:16.157Z,54.41
2023-04-11T17:38:42.526Z,54.58
2023-04-11T17:43:35.441Z,54.81
2023-04-11T17:46:01.892Z,55.49
2023-04-11T17:48:28.267Z,55.66
2023-04-11T17:50:54.843Z,55.50
2023-04-11T17:53:21.256Z,55.84
2023-04-11T17:55:47.619Z,57.24
2023-04-11T17:58:13.998Z,60.38
2023-04-11T18:00:54.811Z,62.18
2023-04-11T18:03:06.902Z,62.91
2023-04-11T18:05:33.202Z,63.53
2023-04-11T18:07:59.647Z,63.99
2023-04-11T18:10:26.015Z,64.26
2023-04-11T18:12:52.405Z,63.88
2023-04-11T18:15:18.900Z,64.25
2023-04-11T18:17:45.330Z,64.55
2023-04-11T18:20:11.914Z,64.28
2023-04-11T18:22:38.302Z,63.69
2023-04-11T18:25:04.917Z,64.02
2023-04-11T18:27:32.013Z,64.25
2023-04-11T18:29:58.380Z,64.13
2023-04-11T18:32:27.446Z,64.35
2023-04-11T18:34:52.046Z,64.42
2023-04-11T18:37:17.903Z,64.48
2023-04-11T18:39:44.335Z,64.40
2023-04-11T18:42:11.608Z,64.04
2023-04-11T18:44:37.957Z,64.32
2023-04-11T18:47:06.029Z,64.49
2023-04-11T18:49:31.714Z,64.52
2023-04-11T18:51:58.324Z,64.56
2023-04-11T18:54:24.694Z,64.32
2023-04-11T18:56:52.981Z,64.42
2023-04-11T18:59:18.819Z,64.52
2023-04-11T19:01:44.177Z,64.37
2023-04-11T19:04:12.113Z,64.60
2023-04-11T19:06:38.002Z,64.59
2023-04-11T19:09:07.570Z,64.68
2023-04-11T19:11:38.591Z,64.74
2023-04-11T19:14:12.740Z,64.67
2023-04-11T19:16:39.235Z,64.58
2023-04-11T19:19:05.574Z,64.78
2023-04-11T19:21:32.031Z,64.84
2023-04-11T19:23:58.627Z,64.50
2023-04-11T19:26:24.825Z,64.85
2023-04-11T19:28:51.177Z,65.02
2023-04-11T19:31:17.640Z,65.04
2023-04-11T19:33:44.131Z,65.27
2023-04-11T19:36:10.671Z,65.28
2023-04-11T19:38:37.046Z,65.54
2023-04-11T19:41:05.573Z,65.60
2023-04-11T19:43:32.135Z,65.72
2023-04-11T19:45:58.571Z,65.80
2023-04-11T19:48:24.930Z,65.90
2023-04-11T19:50:51.351Z,65.75
2023-04-11T19:53:17.800Z,65.81
2023-04-11T19:55:44.153Z,73.07
2023-04-11T19:58:10.569Z,79.07
2023-04-11T20:00:36.937Z,79.41
2023-04-11T20:03:03.479Z,78.88
2023-04-11T20:05:30.054Z,78.79
2023-04-11T20:07:56.425Z,78.86
2023-04-11T20:10:22.868Z,79.07
2023-04-11T20:12:49.235Z,79.24
2023-04-11T20:15:15.667Z,79.59
2023-04-11T20:17:43.720Z,79.88
2023-04-11T20:20:08.686Z,80.23
2023-04-11T20:22:34.896Z,80.49
2023-04-11T20:25:01.592Z,80.83
2023-04-11T20:27:27.914Z,81.24
2023-04-11T20:29:54.344Z,81.68
2023-04-11T20:32:20.836Z,82.11
2023-04-11T20:34:47.442Z,82.58
2023-04-11T20:37:13.785Z,82.98
2023-04-11T20:39:40.173Z,83.40
2023-04-11T20:42:06.552Z,83.81
2023-04-11T20:44:32.930Z,84.27
2023-04-11T20:46:59.369Z,84.67
2023-04-11T20:49:25.797Z,85.10
2023-04-11T20:51:52.239Z,85.52
2023-04-11T20:54:18.648Z,85.91
2023-04-11T20:56:45.025Z,86.30
2023-04-11T20:59:11.421Z,86.71
2023-04-11T21:01:38.197Z,87.12
2023-04-11T21:04:04.785Z,87.44
2023-04-11T21:06:30.923Z,87.82
2023-04-11T21:08:57.323Z,88.24
2023-04-11T21:11:23.727Z,88.63
2023-04-11T21:13:50.162Z,88.97
2023-04-11T21:16:16.566Z,89.27
2023-04-11T21:18:42.961Z,89.68
2023-04-11T21:21:09.349Z,90.05
2023-04-11T21:23:35.800Z,90.42
2023-04-11T21:26:03.317Z,90.79
2023-04-11T21:28:29.709Z,91.15
2023-04-11T21:30:56.183Z,91.51
2023-04-11T21:33:22.526Z,91.85
2023-04-11T21:35:49.214Z,92.10
2023-04-11T21:38:15.590Z,92.36
2023-04-11T21:40:41.974Z,92.63
2023-04-11T21:43:08.442Z,92.85
2023-04-11T21:45:34.800Z,93.15
2023-04-11T21:48:01.218Z,93.37
2023-04-11T21:50:27.564Z,93.62
2023-04-11T21:52:53.990Z,93.86
2023-04-11T21:55:20.357Z,94.06
2023-04-11T21:57:46.805Z,94.26
2023-04-11T22:00:13.164Z,94.45
2023-04-11T22:02:39.685Z,94.64
2023-04-11T22:05:07.669Z,94.84
2023-04-11T22:07:33.667Z,95.06
2023-04-11T22:09:59.892Z,95.28
2023-04-11T22:12:26.304Z,95.47
2023-04-11T22:14:52.745Z,95.70
2023-04-11T22:17:19.116Z,95.94
2023-04-11T22:19:45.518Z,96.16
2023-04-11T22:22:11.889Z,96.40
2023-04-11T22:24:38.321Z,96.64
2023-04-11T22:27:04.721Z,96.85
2023-04-11T22:29:31.159Z,97.07
2023-04-11T22:31:57.650Z,97.34
2023-04-11T22:34:23.976Z,97.60
2023-04-11T22:36:50.361Z,97.87
2023-04-11T22:39:16.734Z,98.12
2023-04-11T22:41:43.225Z,98.40
2023-04-11T22:44:09.510Z,98.70
2023-04-11T22:46:35.965Z,98.94
2023-04-11T22:49:02.342Z,99.20
2023-04-11T22:51:28.774Z,99.45
2023-04-11T22:53:55.552Z,99.67
2023-04-11T22:56:21.616Z,99.89
2023-04-11T22:58:48.021Z,100.00
2023-04-11T23:01:17.949Z,100.00
2023-04-11T23:03:44.360Z,100.00
2023-04-11T23:06:10.874Z,100.00
2023-04-11T23:08:37.183Z,100.00
2023-04-11T23:11:06.266Z,100.00
2023-04-11T23:13:34.786Z,100.00
2023-04-11T23:16:01.178Z,100.00
2023-04-11T23:18:28.049Z,100.00
2023-04-11T23:20:54.472Z,100.00
2023-04-11T23:23:20.869Z,100.00
2023-04-11T23:25:47.284Z,100.00
2023-04-11T23:28:13.670Z,100.00
2023-04-11T23:30:40.157Z,100.00
2023-04-11T23:33:06.551Z,100.00
2023-04-11T23:35:32.930Z,100.00
2023-04-11T23:37:59.296Z,100.00
2023-04-11T23:40:25.716Z,100.00
2023-04-11T23:42:52.092Z,100.00
2023-04-11T23:45:18.475Z,100.00
2023-04-11T23:47:44.901Z,100.00
2023-04-11T23:50:11.311Z,100.00
2023-04-11T23:52:37.721Z,100.00
2023-04-11T23:55:04.088Z,100.00
2023-04-11T23:57:30.869Z,100.00
2023-04-11T23:59:57.281Z,100.00
